sensor_id;sensor_type;location;lat;lon;timestamp;P1;durP1;ratioP1;P2;durP2;ratioP2
34836;SDS011;21053;50.848;4.652;2024-03-23T00:54:25;67.18;;;62.08;;
34836;SDS011;21053;50.848;4.652;2024-03-23T00:56:51;68.60;;;63.47;;
34836;SDS011;21053;50.848;4.652;2024-03-23T00:59:16;66.88;;;61.90;;
34836;SDS011;21053;50.848;4.652;2024-03-23T01:01:42;64.65;;;59.90;;
34836;SDS011;21053;50.848;4.652;2024-03-23T01:04:20;70.40;;;65.10;;
34836;SDS011;21053;50.848;4.652;2024-03-23T01:06:49;71.10;;;65.85;;
34836;SDS011;21053;50.848;4.652;2024-03-23T01:09:15;73.75;;;67.57;;
34836;SDS011;21053;50.848;4.652;2024-03-23T01:11:42;61.70;;;57.00;;
34836;SDS011;21053;50.848;4.652;2024-03-23T01:14:08;69.05;;;63.80;;
34836;SDS011;21053;50.848;4.652;2024-03-23T01:19:05;74.75;;;69.15;;
34836;SDS011;21053;50.848;4.652;2024-03-23T01:21:32;72.45;;;67.10;;
34836;SDS011;21053;50.848;4.652;2024-03-23T01:24:00;73.50;;;67.82;;
34836;SDS011;21053;50.848;4.652;2024-03-23T01:26:26;75.88;;;70.22;;
34836;SDS011;21053;50.848;4.652;2024-03-23T01:28:51;73.15;;;67.63;;
34836;SDS011;21053;50.848;4.652;2024-03-23T01:31:18;71.70;;;66.40;;
34836;SDS011;21053;50.848;4.652;2024-03-23T01:36:14;68.93;;;63.78;;
34836;SDS011;21053;50.848;4.652;2024-03-23T01:38:41;72.50;;;67.15;;
34836;SDS011;21053;50.848;4.652;2024-03-23T01:41:08;71.22;;;65.55;;
34836;SDS011;21053;50.848;4.652;2024-03-23T01:43:37;69.32;;;64.15;;
34836;SDS011;21053;50.848;4.652;2024-03-23T01:46:03;77.18;;;71.20;;
34836;SDS011;21053;50.848;4.652;2024-03-23T01:50:58;72.75;;;66.10;;
34836;SDS011;21053;50.848;4.652;2024-03-23T01:58:38;69.25;;;64.07;;
34836;SDS011;21053;50.848;4.652;2024-03-23T02:03:35;77.22;;;70.88;;
34836;SDS011;21053;50.848;4.652;2024-03-23T02:06:03;79.95;;;73.97;;
34836;SDS011;21053;50.848;4.652;2024-03-23T02:08:33;72.68;;;67.32;;
34836;SDS011;21053;50.848;4.652;2024-03-23T02:11:00;74.40;;;68.90;;
34836;SDS011;21053;50.848;4.652;2024-03-23T02:13:26;74.13;;;68.53;;
34836;SDS011;21053;50.848;4.652;2024-03-23T02:15:55;69.78;;;64.65;;
34836;SDS011;21053;50.848;4.652;2024-03-23T02:18:21;75.85;;;70.20;;
34836;SDS011;21053;50.848;4.652;2024-03-23T02:20:48;71.25;;;65.38;;
34836;SDS011;21053;50.848;4.652;2024-03-23T02:23:15;70.28;;;64.97;;
34836;SDS011;21053;50.848;4.652;2024-03-23T02:25:44;69.20;;;64.07;;
34836;SDS011;21053;50.848;4.652;2024-03-23T02:33:08;71.05;;;65.78;;
34836;SDS011;21053;50.848;4.652;2024-03-23T02:35:34;73.35;;;67.88;;
34836;SDS011;21053;50.848;4.652;2024-03-23T02:38:02;74.45;;;68.78;;
34836;SDS011;21053;50.848;4.652;2024-03-23T02:40:30;70.75;;;65.45;;
34836;SDS011;21053;50.848;4.652;2024-03-23T02:42:59;69.88;;;64.70;;
34836;SDS011;21053;50.848;4.652;2024-03-23T02:45:26;67.90;;;62.90;;
34836;SDS011;21053;50.848;4.652;2024-03-23T02:47:52;70.95;;;65.68;;
34836;SDS011;21053;50.848;4.652;2024-03-23T02:50:20;74.13;;;68.60;;
34836;SDS011;21053;50.848;4.652;2024-03-23T02:55:16;72.57;;;66.80;;
34836;SDS011;21053;50.848;4.652;2024-03-23T02:57:42;71.38;;;66.00;;
34836;SDS011;21053;50.848;4.652;2024-03-23T03:02:38;68.07;;;62.97;;
34836;SDS011;21053;50.848;4.652;2024-03-23T03:07:36;67.05;;;62.10;;
34836;SDS011;21053;50.848;4.652;2024-03-23T03:10:04;70.22;;;65.03;;
34836;SDS011;21053;50.848;4.652;2024-03-23T03:12:33;73.53;;;67.95;;
34836;SDS011;21053;50.848;4.652;2024-03-23T03:15:02;66.53;;;61.40;;
34836;SDS011;21053;50.848;4.652;2024-03-23T03:17:31;67.35;;;62.03;;
34836;SDS011;21053;50.848;4.652;2024-03-23T03:22:26;58.97;;;54.33;;
34836;SDS011;21053;50.848;4.652;2024-03-23T03:24:53;69.18;;;64.00;;
34836;SDS011;21053;50.848;4.652;2024-03-23T03:27:18;63.30;;;58.58;;
34836;SDS011;21053;50.848;4.652;2024-03-23T03:29:47;68.93;;;63.55;;
34836;SDS011;21053;50.848;4.652;2024-03-23T03:32:15;63.38;;;58.63;;
34836;SDS011;21053;50.848;4.652;2024-03-23T03:34:43;67.05;;;62.00;;
34836;SDS011;21053;50.848;4.652;2024-03-23T03:37:10;64.68;;;59.85;;
34836;SDS011;21053;50.848;4.652;2024-03-23T03:39:36;67.28;;;62.25;;
34836;SDS011;21053;50.848;4.652;2024-03-23T03:42:03;65.03;;;60.22;;
34836;SDS011;21053;50.848;4.652;2024-03-23T03:44:31;64.15;;;59.42;;
34836;SDS011;21053;50.848;4.652;2024-03-23T03:46:58;72.68;;;67.32;;
34836;SDS011;21053;50.848;4.652;2024-03-23T03:49:24;73.38;;;67.85;;
34836;SDS011;21053;50.848;4.652;2024-03-23T03:51:50;72.80;;;67.40;;
34836;SDS011;21053;50.848;4.652;2024-03-23T03:54:19;75.57;;;69.03;;
34836;SDS011;21053;50.848;4.652;2024-03-23T03:56:46;71.13;;;64.82;;
34836;SDS011;21053;50.848;4.652;2024-03-23T03:59:12;68.25;;;62.83;;
34836;SDS011;21053;50.848;4.652;2024-03-23T04:01:38;64.97;;;60.20;;
34836;SDS011;21053;50.848;4.652;2024-03-23T04:04:03;65.35;;;59.90;;
34836;SDS011;21053;50.848;4.652;2024-03-23T04:06:32;67.50;;;62.25;;
34836;SDS011;21053;50.848;4.652;2024-03-23T04:09:00;58.47;;;54.10;;
34836;SDS011;21053;50.848;4.652;2024-03-23T04:11:28;60.15;;;55.70;;
34836;SDS011;21053;50.848;4.652;2024-03-23T04:13:55;61.55;;;56.92;;
34836;SDS011;21053;50.848;4.652;2024-03-23T04:16:29;64.57;;;59.72;;
34836;SDS011;21053;50.848;4.652;2024-03-23T04:21:27;59.70;;;55.00;;
34836;SDS011;21053;50.848;4.652;2024-03-23T04:23:53;59.80;;;55.20;;
34836;SDS011;21053;50.848;4.652;2024-03-23T04:26:19;56.17;;;51.80;;
34836;SDS011;21053;50.848;4.652;2024-03-23T04:28:45;57.22;;;52.97;;
34836;SDS011;21053;50.848;4.652;2024-03-23T04:31:12;61.50;;;56.88;;
34836;SDS011;21053;50.848;4.652;2024-03-23T04:33:37;56.53;;;52.35;;
34836;SDS011;21053;50.848;4.652;2024-03-23T04:36:03;63.83;;;59.10;;
34836;SDS011;21053;50.848;4.652;2024-03-23T04:38:31;59.45;;;55.03;;
34836;SDS011;21053;50.848;4.652;2024-03-23T04:40:57;60.85;;;55.38;;
34836;SDS011;21053;50.848;4.652;2024-03-23T04:43:24;60.38;;;55.63;;
34836;SDS011;21053;50.848;4.652;2024-03-23T04:45:55;62.42;;;57.50;;
34836;SDS011;21053;50.848;4.652;2024-03-23T04:48:21;63.58;;;57.95;;
34836;SDS011;21053;50.848;4.652;2024-03-23T04:50:49;60.63;;;56.05;;
34836;SDS011;21053;50.848;4.652;2024-03-23T04:53:16;58.78;;;54.22;;
34836;SDS011;21053;50.848;4.652;2024-03-23T04:55:45;57.50;;;53.15;;
34836;SDS011;21053;50.848;4.652;2024-03-23T04:58:13;63.70;;;58.35;;
34836;SDS011;21053;50.848;4.652;2024-03-23T05:00:40;58.42;;;53.75;;
34836;SDS011;21053;50.848;4.652;2024-03-23T05:03:05;64.38;;;59.60;;
34836;SDS011;21053;50.848;4.652;2024-03-23T05:05:31;59.33;;;54.83;;
34836;SDS011;21053;50.848;4.652;2024-03-23T05:07:57;60.90;;;56.35;;
34836;SDS011;21053;50.848;4.652;2024-03-23T05:10:23;61.95;;;57.33;;
34836;SDS011;21053;50.848;4.652;2024-03-23T05:12:48;63.13;;;58.42;;
34836;SDS011;21053;50.848;4.652;2024-03-23T05:15:16;65.07;;;60.20;;
34836;SDS011;21053;50.848;4.652;2024-03-23T05:17:42;62.70;;;57.25;;
34836;SDS011;21053;50.848;4.652;2024-03-23T05:20:08;65.55;;;60.20;;
34836;SDS011;21053;50.848;4.652;2024-03-23T05:22:35;65.93;;;60.90;;
34836;SDS011;21053;50.848;4.652;2024-03-23T05:25:01;60.10;;;55.65;;
34836;SDS011;21053;50.848;4.652;2024-03-23T05:27:33;59.05;;;54.60;;
34836;SDS011;21053;50.848;4.652;2024-03-23T05:30:00;53.60;;;49.63;;
34836;SDS011;21053;50.848;4.652;2024-03-23T05:32:29;54.20;;;50.10;;
34836;SDS011;21053;50.848;4.652;2024-03-23T05:34:55;54.58;;;50.47;;
34836;SDS011;21053;50.848;4.652;2024-03-23T05:37:23;57.08;;;52.88;;
34836;SDS011;21053;50.848;4.652;2024-03-23T05:39:49;55.25;;;50.78;;
34836;SDS011;21053;50.848;4.652;2024-03-23T05:42:15;51.40;;;47.58;;
34836;SDS011;21053;50.848;4.652;2024-03-23T05:44:44;54.30;;;50.25;;
34836;SDS011;21053;50.848;4.652;2024-03-23T05:47:10;51.42;;;47.38;;
34836;SDS011;21053;50.848;4.652;2024-03-23T05:49:39;44.33;;;41.08;;
34836;SDS011;21053;50.848;4.652;2024-03-23T05:52:06;48.75;;;45.15;;
34836;SDS011;21053;50.848;4.652;2024-03-23T05:54:35;54.10;;;50.13;;
34836;SDS011;21053;50.848;4.652;2024-03-23T05:57:01;49.85;;;46.20;;
34836;SDS011;21053;50.848;4.652;2024-03-23T05:59:30;53.58;;;49.50;;
34836;SDS011;21053;50.848;4.652;2024-03-23T06:01:56;57.53;;;52.60;;
34836;SDS011;21053;50.848;4.652;2024-03-23T06:04:23;55.45;;;51.35;;
34836;SDS011;21053;50.848;4.652;2024-03-23T06:06:50;53.63;;;49.47;;
34836;SDS011;21053;50.848;4.652;2024-03-23T06:09:22;57.70;;;53.45;;
34836;SDS011;21053;50.848;4.652;2024-03-23T06:11:48;60.13;;;55.50;;
34836;SDS011;21053;50.848;4.652;2024-03-23T06:14:16;53.05;;;48.35;;
34836;SDS011;21053;50.848;4.652;2024-03-23T06:16:42;61.92;;;57.28;;
34836;SDS011;21053;50.848;4.652;2024-03-23T06:19:10;62.20;;;57.50;;
34836;SDS011;21053;50.848;4.652;2024-03-23T06:21:36;61.00;;;56.25;;
34836;SDS011;21053;50.848;4.652;2024-03-23T06:24:04;64.82;;;59.90;;
34836;SDS011;21053;50.848;4.652;2024-03-23T06:26:31;66.80;;;61.65;;
34836;SDS011;21053;50.848;4.652;2024-03-23T06:28:58;63.30;;;58.58;;
34836;SDS011;21053;50.848;4.652;2024-03-23T06:31:26;65.85;;;60.92;;
34836;SDS011;21053;50.848;4.652;2024-03-23T06:33:56;61.50;;;56.92;;
34836;SDS011;21053;50.848;4.652;2024-03-23T06:36:23;61.88;;;57.22;;
34836;SDS011;21053;50.848;4.652;2024-03-23T06:41:19;62.75;;;58.05;;
34836;SDS011;21053;50.848;4.652;2024-03-23T06:43:46;64.15;;;59.28;;
34836;SDS011;21053;50.848;4.652;2024-03-23T06:46:12;68.10;;;62.55;;
34836;SDS011;21053;50.848;4.652;2024-03-23T06:48:39;56.40;;;52.10;;
34836;SDS011;21053;50.848;4.652;2024-03-23T06:51:07;60.30;;;55.65;;
34836;SDS011;21053;50.848;4.652;2024-03-23T06:53:35;63.67;;;56.85;;
34836;SDS011;21053;50.848;4.652;2024-03-23T06:56:01;61.67;;;56.90;;
34836;SDS011;21053;50.848;4.652;2024-03-23T07:01:00;61.40;;;56.78;;
34836;SDS011;21053;50.848;4.652;2024-03-23T07:03:26;64.78;;;59.92;;
34836;SDS011;21053;50.848;4.652;2024-03-23T07:05:57;63.33;;;58.50;;
34836;SDS011;21053;50.848;4.652;2024-03-23T07:08:24;62.65;;;57.97;;
34836;SDS011;21053;50.848;4.652;2024-03-23T07:10:51;61.10;;;56.53;;
34836;SDS011;21053;50.848;4.652;2024-03-23T07:13:18;65.05;;;60.05;;
34836;SDS011;21053;50.848;4.652;2024-03-23T07:15:51;64.22;;;58.97;;
34836;SDS011;21053;50.848;4.652;2024-03-23T07:18:23;63.83;;;58.97;;
34836;SDS011;21053;50.848;4.652;2024-03-23T07:20:53;63.70;;;58.80;;
34836;SDS011;21053;50.848;4.652;2024-03-23T07:23:19;62.00;;;57.40;;
34836;SDS011;21053;50.848;4.652;2024-03-23T07:26:01;67.05;;;61.95;;
34836;SDS011;21053;50.848;4.652;2024-03-23T07:28:32;66.55;;;61.42;;
34836;SDS011;21053;50.848;4.652;2024-03-23T07:31:09;79.20;;;73.03;;
34836;SDS011;21053;50.848;4.652;2024-03-23T07:33:47;66.15;;;61.15;;
34836;SDS011;21053;50.848;4.652;2024-03-23T07:36:15;61.75;;;57.17;;
34836;SDS011;21053;50.848;4.652;2024-03-23T07:38:43;62.67;;;58.05;;
34836;SDS011;21053;50.848;4.652;2024-03-23T07:41:17;63.78;;;59.08;;
34836;SDS011;21053;50.848;4.652;2024-03-23T07:43:45;64.72;;;59.85;;
34836;SDS011;21053;50.848;4.652;2024-03-23T07:46:15;62.05;;;56.97;;
34836;SDS011;21053;50.848;4.652;2024-03-23T07:51:20;54.05;;;50.03;;
34836;SDS011;21053;50.848;4.652;2024-03-23T07:53:48;52.60;;;48.75;;
34836;SDS011;21053;50.848;4.652;2024-03-23T07:56:16;55.80;;;51.67;;
34836;SDS011;21053;50.848;4.652;2024-03-23T07:58:47;44.33;;;40.97;;
34836;SDS011;21053;50.848;4.652;2024-03-23T08:01:15;38.65;;;35.67;;
34836;SDS011;21053;50.848;4.652;2024-03-23T08:03:43;43.38;;;40.20;;
34836;SDS011;21053;50.848;4.652;2024-03-23T08:06:16;49.15;;;45.55;;
34836;SDS011;21053;50.848;4.652;2024-03-23T08:08:47;48.27;;;44.77;;
34836;SDS011;21053;50.848;4.652;2024-03-23T08:11:39;49.38;;;45.78;;
34836;SDS011;21053;50.848;4.652;2024-03-23T08:14:07;54.03;;;49.97;;
34836;SDS011;21053;50.848;4.652;2024-03-23T08:16:40;56.42;;;51.97;;
34836;SDS011;21053;50.848;4.652;2024-03-23T08:19:08;61.30;;;56.58;;
34836;SDS011;21053;50.848;4.652;2024-03-23T08:21:35;66.50;;;61.00;;
34836;SDS011;21053;50.848;4.652;2024-03-23T08:24:04;59.30;;;54.90;;
34836;SDS011;21053;50.848;4.652;2024-03-23T08:29:03;58.95;;;54.58;;
34836;SDS011;21053;50.848;4.652;2024-03-23T08:31:29;60.80;;;56.05;;
34836;SDS011;21053;50.848;4.652;2024-03-23T08:33:58;60.75;;;56.28;;
34836;SDS011;21053;50.848;4.652;2024-03-23T08:36:25;55.90;;;51.78;;
34836;SDS011;21053;50.848;4.652;2024-03-23T08:38:51;53.63;;;49.72;;
34836;SDS011;21053;50.848;4.652;2024-03-23T08:41:20;46.40;;;42.65;;
34836;SDS011;21053;50.848;4.652;2024-03-23T08:43:46;49.03;;;45.05;;
34836;SDS011;21053;50.848;4.652;2024-03-23T08:46:13;45.38;;;41.95;;
34836;SDS011;21053;50.848;4.652;2024-03-23T08:48:46;46.97;;;42.58;;
34836;SDS011;21053;50.848;4.652;2024-03-23T08:51:14;49.13;;;42.97;;
34836;SDS011;21053;50.848;4.652;2024-03-23T08:53:41;39.58;;;36.65;;
34836;SDS011;21053;50.848;4.652;2024-03-23T08:56:11;35.85;;;32.92;;
34836;SDS011;21053;50.848;4.652;2024-03-23T09:01:15;25.15;;;23.30;;
34836;SDS011;21053;50.848;4.652;2024-03-23T09:03:43;19.25;;;17.80;;
34836;SDS011;21053;50.848;4.652;2024-03-23T09:06:14;24.50;;;17.90;;
34836;SDS011;21053;50.848;4.652;2024-03-23T09:08:42;20.33;;;15.90;;
34836;SDS011;21053;50.848;4.652;2024-03-23T09:11:11;12.10;;;11.00;;
34836;SDS011;21053;50.848;4.652;2024-03-23T09:13:46;27.65;;;15.90;;
34836;SDS011;21053;50.848;4.652;2024-03-23T09:16:13;14.93;;;13.88;;
34836;SDS011;21053;50.848;4.652;2024-03-23T09:21:19;12.80;;;11.82;;
34836;SDS011;21053;50.848;4.652;2024-03-23T09:26:17;14.38;;;13.32;;
34836;SDS011;21053;50.848;4.652;2024-03-23T09:31:14;69.45;;;64.13;;
34836;SDS011;21053;50.848;4.652;2024-03-23T09:33:40;107.45;;;99.35;;
34836;SDS011;21053;50.848;4.652;2024-03-23T09:36:07;49.15;;;45.25;;
34836;SDS011;21053;50.848;4.652;2024-03-23T09:38:36;21.20;;;18.77;;
34836;SDS011;21053;50.848;4.652;2024-03-23T09:41:09;16.42;;;14.82;;
34836;SDS011;21053;50.848;4.652;2024-03-23T09:46:04;14.82;;;13.77;;
34836;SDS011;21053;50.848;4.652;2024-03-23T09:51:02;16.10;;;14.98;;
34836;SDS011;21053;50.848;4.652;2024-03-23T09:53:29;19.55;;;17.98;;
34836;SDS011;21053;50.848;4.652;2024-03-23T09:55:59;19.48;;;18.02;;
34836;SDS011;21053;50.848;4.652;2024-03-23T10:00:57;34.33;;;31.73;;
34836;SDS011;21053;50.848;4.652;2024-03-23T10:06:07;71.35;;;64.50;;
34836;SDS011;21053;50.848;4.652;2024-03-23T10:08:33;88.85;;;81.30;;
34836;SDS011;21053;50.848;4.652;2024-03-23T10:11:12;63.33;;;58.15;;
34836;SDS011;21053;50.848;4.652;2024-03-23T10:13:43;68.25;;;62.55;;
34836;SDS011;21053;50.848;4.652;2024-03-23T10:16:11;49.72;;;45.40;;
34836;SDS011;21053;50.848;4.652;2024-03-23T10:18:40;40.78;;;37.30;;
34836;SDS011;21053;50.848;4.652;2024-03-23T10:21:08;111.38;;;101.50;;
34836;SDS011;21053;50.848;4.652;2024-03-23T10:23:40;126.03;;;114.85;;
34836;SDS011;21053;50.848;4.652;2024-03-23T10:26:20;280.92;;;257.17;;
34836;SDS011;21053;50.848;4.652;2024-03-23T10:28:58;223.85;;;205.02;;
34836;SDS011;21053;50.848;4.652;2024-03-23T10:31:27;221.75;;;203.52;;
34836;SDS011;21053;50.848;4.652;2024-03-23T10:33:55;172.93;;;158.70;;
34836;SDS011;21053;50.848;4.652;2024-03-23T10:36:22;132.93;;;122.18;;
34836;SDS011;21053;50.848;4.652;2024-03-23T10:38:54;110.45;;;101.43;;
34836;SDS011;21053;50.848;4.652;2024-03-23T10:41:21;147.25;;;135.35;;
34836;SDS011;21053;50.848;4.652;2024-03-23T10:43:48;172.20;;;158.32;;
34836;SDS011;21053;50.848;4.652;2024-03-23T10:46:16;158.45;;;145.77;;
34836;SDS011;21053;50.848;4.652;2024-03-23T10:48:48;178.15;;;163.93;;
34836;SDS011;21053;50.848;4.652;2024-03-23T10:53:46;100.57;;;92.03;;
34836;SDS011;21053;50.848;4.652;2024-03-23T10:56:14;116.25;;;106.10;;
34836;SDS011;21053;50.848;4.652;2024-03-23T10:58:44;188.00;;;171.52;;
34836;SDS011;21053;50.848;4.652;2024-03-23T11:01:13;233.20;;;213.50;;
34836;SDS011;21053;50.848;4.652;2024-03-23T11:03:45;306.40;;;280.00;;
34836;SDS011;21053;50.848;4.652;2024-03-23T11:09:10;171.40;;;156.82;;
34836;SDS011;21053;50.848;4.652;2024-03-23T11:12:30;187.18;;;170.85;;
34836;SDS011;21053;50.848;4.652;2024-03-23T11:15:03;270.92;;;247.90;;
34836;SDS011;21053;50.848;4.652;2024-03-23T11:17:30;341.27;;;312.52;;
34836;SDS011;21053;50.848;4.652;2024-03-23T11:20:01;248.43;;;227.65;;
34836;SDS011;21053;50.848;4.652;2024-03-23T11:25:20;120.93;;;111.07;;
34836;SDS011;21053;50.848;4.652;2024-03-23T11:27:51;113.93;;;104.70;;
34836;SDS011;21053;50.848;4.652;2024-03-23T11:30:22;104.45;;;96.00;;
34836;SDS011;21053;50.848;4.652;2024-03-23T11:32:54;115.65;;;106.35;;
34836;SDS011;21053;50.848;4.652;2024-03-23T11:35:32;147.63;;;134.27;;
34836;SDS011;21053;50.848;4.652;2024-03-23T11:38:07;172.40;;;157.80;;
34836;SDS011;21053;50.848;4.652;2024-03-23T11:40:39;163.53;;;149.97;;
34836;SDS011;21053;50.848;4.652;2024-03-23T11:43:11;202.35;;;185.73;;
34836;SDS011;21053;50.848;4.652;2024-03-23T11:45:49;229.70;;;210.75;;
34836;SDS011;21053;50.848;4.652;2024-03-23T11:48:22;230.48;;;211.57;;
34836;SDS011;21053;50.848;4.652;2024-03-23T11:50:49;219.32;;;201.40;;
34836;SDS011;21053;50.848;4.652;2024-03-23T11:53:21;282.70;;;259.50;;
34836;SDS011;21053;50.848;4.652;2024-03-23T11:55:57;280.67;;;256.85;;
34836;SDS011;21053;50.848;4.652;2024-03-23T12:00:59;343.05;;;314.48;;
34836;SDS011;21053;50.848;4.652;2024-03-23T12:03:32;278.40;;;254.63;;
34836;SDS011;21053;50.848;4.652;2024-03-23T12:08:30;258.73;;;237.20;;
34836;SDS011;21053;50.848;4.652;2024-03-23T12:11:16;265.70;;;243.65;;
34836;SDS011;21053;50.848;4.652;2024-03-23T12:13:43;239.93;;;219.68;;
34836;SDS011;21053;50.848;4.652;2024-03-23T12:16:20;294.30;;;270.02;;
34836;SDS011;21053;50.848;4.652;2024-03-23T12:18:50;264.08;;;241.45;;
34836;SDS011;21053;50.848;4.652;2024-03-23T12:21:21;200.63;;;183.57;;
34836;SDS011;21053;50.848;4.652;2024-03-23T12:23:51;118.28;;;108.00;;
34836;SDS011;21053;50.848;4.652;2024-03-23T12:28:51;119.38;;;108.68;;
34836;SDS011;21053;50.848;4.652;2024-03-23T12:31:19;146.55;;;134.98;;
34836;SDS011;21053;50.848;4.652;2024-03-23T12:33:45;110.07;;;101.28;;
34836;SDS011;21053;50.848;4.652;2024-03-23T12:36:13;106.38;;;97.88;;
34836;SDS011;21053;50.848;4.652;2024-03-23T12:38:39;122.47;;;112.57;;
34836;SDS011;21053;50.848;4.652;2024-03-23T12:41:08;120.13;;;110.30;;
34836;SDS011;21053;50.848;4.652;2024-03-23T12:43:35;158.88;;;145.95;;
34836;SDS011;21053;50.848;4.652;2024-03-23T12:46:04;80.35;;;74.18;;
34836;SDS011;21053;50.848;4.652;2024-03-23T12:48:33;49.47;;;45.78;;
34836;SDS011;21053;50.848;4.652;2024-03-23T12:50:59;33.40;;;31.00;;
34836;SDS011;21053;50.848;4.652;2024-03-23T12:55:54;38.72;;;35.92;;
34836;SDS011;21053;50.848;4.652;2024-03-23T12:58:22;35.05;;;32.50;;
34836;SDS011;21053;50.848;4.652;2024-03-23T13:00:51;34.47;;;31.98;;
34836;SDS011;21053;50.848;4.652;2024-03-23T13:03:17;34.42;;;31.75;;
34836;SDS011;21053;50.848;4.652;2024-03-23T13:05:43;32.22;;;29.83;;
34836;SDS011;21053;50.848;4.652;2024-03-23T13:08:11;30.67;;;28.27;;
34836;SDS011;21053;50.848;4.652;2024-03-23T13:10:37;31.05;;;28.83;;
34836;SDS011;21053;50.848;4.652;2024-03-23T13:15:33;47.80;;;44.25;;
34836;SDS011;21053;50.848;4.652;2024-03-23T13:17:59;65.85;;;60.75;;
34836;SDS011;21053;50.848;4.652;2024-03-23T13:20:25;57.45;;;52.90;;
34836;SDS011;21053;50.848;4.652;2024-03-23T13:22:57;67.93;;;62.83;;
34836;SDS011;21053;50.848;4.652;2024-03-23T13:25:24;62.55;;;57.85;;
34836;SDS011;21053;50.848;4.652;2024-03-23T13:27:50;75.70;;;69.70;;
34836;SDS011;21053;50.848;4.652;2024-03-23T13:30:22;88.93;;;82.15;;
34836;SDS011;21053;50.848;4.652;2024-03-23T13:32:49;97.13;;;89.57;;
34836;SDS011;21053;50.848;4.652;2024-03-23T13:35:18;88.97;;;81.97;;
34836;SDS011;21053;50.848;4.652;2024-03-23T13:37:44;87.97;;;80.70;;
34836;SDS011;21053;50.848;4.652;2024-03-23T13:45:07;89.20;;;82.07;;
34836;SDS011;21053;50.848;4.652;2024-03-23T13:47:42;73.63;;;67.85;;
34836;SDS011;21053;50.848;4.652;2024-03-23T13:52:39;67.30;;;62.15;;
34836;SDS011;21053;50.848;4.652;2024-03-23T13:55:11;73.20;;;67.53;;
34836;SDS011;21053;50.848;4.652;2024-03-23T13:57:40;75.40;;;69.50;;
34836;SDS011;21053;50.848;4.652;2024-03-23T14:00:07;84.55;;;77.95;;
34836;SDS011;21053;50.848;4.652;2024-03-23T14:05:02;88.03;;;67.80;;
34836;SDS011;21053;50.848;4.652;2024-03-23T14:07:29;68.88;;;63.58;;
34836;SDS011;21053;50.848;4.652;2024-03-23T14:09:55;49.30;;;45.40;;
34836;SDS011;21053;50.848;4.652;2024-03-23T14:12:21;41.55;;;38.42;;
34836;SDS011;21053;50.848;4.652;2024-03-23T14:14:46;38.63;;;35.80;;
34836;SDS011;21053;50.848;4.652;2024-03-23T14:17:13;42.42;;;39.30;;
34836;SDS011;21053;50.848;4.652;2024-03-23T14:19:41;40.78;;;37.78;;
34836;SDS011;21053;50.848;4.652;2024-03-23T14:22:08;47.47;;;44.00;;
34836;SDS011;21053;50.848;4.652;2024-03-23T14:24:33;38.95;;;36.08;;
34836;SDS011;21053;50.848;4.652;2024-03-23T14:27:01;41.38;;;38.05;;
34836;SDS011;21053;50.848;4.652;2024-03-23T14:29:30;39.50;;;36.63;;
34836;SDS011;21053;50.848;4.652;2024-03-23T14:31:59;38.53;;;35.70;;
34836;SDS011;21053;50.848;4.652;2024-03-23T14:34:27;39.40;;;36.47;;
34836;SDS011;21053;50.848;4.652;2024-03-23T14:38:09;34.42;;;31.95;;
34836;SDS011;21053;50.848;4.652;2024-03-23T14:40:38;42.95;;;39.83;;
34836;SDS011;21053;50.848;4.652;2024-03-23T14:43:04;50.95;;;42.38;;
34836;SDS011;21053;50.848;4.652;2024-03-23T14:45:29;47.22;;;43.83;;
34836;SDS011;21053;50.848;4.652;2024-03-23T14:47:55;45.50;;;41.92;;
34836;SDS011;21053;50.848;4.652;2024-03-23T14:50:24;43.83;;;40.65;;
34836;SDS011;21053;50.848;4.652;2024-03-23T14:52:51;37.92;;;35.20;;
34836;SDS011;21053;50.848;4.652;2024-03-23T14:55:20;41.50;;;38.38;;
34836;SDS011;21053;50.848;4.652;2024-03-23T14:57:47;40.13;;;36.38;;
34836;SDS011;21053;50.848;4.652;2024-03-23T15:00:15;38.72;;;35.30;;
34836;SDS011;21053;50.848;4.652;2024-03-23T15:02:43;39.45;;;36.60;;
34836;SDS011;21053;50.848;4.652;2024-03-23T15:07:41;57.38;;;52.97;;
34836;SDS011;21053;50.848;4.652;2024-03-23T15:10:07;52.10;;;47.63;;
34836;SDS011;21053;50.848;4.652;2024-03-23T15:12:34;55.47;;;51.20;;
34836;SDS011;21053;50.848;4.652;2024-03-23T15:15:03;42.58;;;39.40;;
34836;SDS011;21053;50.848;4.652;2024-03-23T15:20:01;43.75;;;40.50;;
34836;SDS011;21053;50.848;4.652;2024-03-23T15:24:59;44.60;;;41.30;;
34836;SDS011;21053;50.848;4.652;2024-03-23T15:29:56;41.47;;;38.28;;
34836;SDS011;21053;50.848;4.652;2024-03-23T15:32:23;53.22;;;48.97;;
34836;SDS011;21053;50.848;4.652;2024-03-23T15:34:50;45.65;;;42.22;;
34836;SDS011;21053;50.848;4.652;2024-03-23T15:37:18;46.35;;;42.88;;
34836;SDS011;21053;50.848;4.652;2024-03-23T15:39:44;51.85;;;47.83;;
34836;SDS011;21053;50.848;4.652;2024-03-23T15:44:39;52.00;;;48.03;;
34836;SDS011;21053;50.848;4.652;2024-03-23T15:47:10;49.53;;;45.83;;
34836;SDS011;21053;50.848;4.652;2024-03-23T15:49:39;50.42;;;46.63;;
34836;SDS011;21053;50.848;4.652;2024-03-23T15:52:11;41.65;;;38.55;;
34836;SDS011;21053;50.848;4.652;2024-03-23T15:54:39;45.47;;;42.08;;
34836;SDS011;21053;50.848;4.652;2024-03-23T15:57:06;43.92;;;40.67;;
34836;SDS011;21053;50.848;4.652;2024-03-23T15:59:34;45.30;;;41.92;;
34836;SDS011;21053;50.848;4.652;2024-03-23T16:02:07;59.20;;;54.67;;
34836;SDS011;21053;50.848;4.652;2024-03-23T16:04:35;47.03;;;43.22;;
34836;SDS011;21053;50.848;4.652;2024-03-23T16:12:00;43.15;;;39.97;;
34836;SDS011;21053;50.848;4.652;2024-03-23T16:14:27;43.85;;;40.58;;
34836;SDS011;21053;50.848;4.652;2024-03-23T16:16:59;43.72;;;40.40;;
34836;SDS011;21053;50.848;4.652;2024-03-23T16:19:24;42.83;;;39.53;;
34836;SDS011;21053;50.848;4.652;2024-03-23T16:22:13;41.63;;;38.00;;
34836;SDS011;21053;50.848;4.652;2024-03-23T16:24:42;43.20;;;39.97;;
34836;SDS011;21053;50.848;4.652;2024-03-23T16:28:27;47.65;;;44.08;;
34836;SDS011;21053;50.848;4.652;2024-03-23T16:32:49;42.22;;;39.00;;
34836;SDS011;21053;50.848;4.652;2024-03-23T16:40:16;51.05;;;39.92;;
34836;SDS011;21053;50.848;4.652;2024-03-23T16:42:42;39.13;;;36.25;;
34836;SDS011;21053;50.848;4.652;2024-03-23T16:45:11;43.75;;;40.50;;
34836;SDS011;21053;50.848;4.652;2024-03-23T16:47:43;44.75;;;41.40;;
34836;SDS011;21053;50.848;4.652;2024-03-23T16:50:13;48.35;;;44.75;;
34836;SDS011;21053;50.848;4.652;2024-03-23T16:52:45;56.90;;;52.60;;
34836;SDS011;21053;50.848;4.652;2024-03-23T16:57:42;51.63;;;47.08;;
34836;SDS011;21053;50.848;4.652;2024-03-23T17:00:08;59.45;;;54.97;;
34836;SDS011;21053;50.848;4.652;2024-03-23T17:02:36;49.60;;;45.63;;
34836;SDS011;21053;50.848;4.652;2024-03-23T17:05:21;51.83;;;47.65;;
34836;SDS011;21053;50.848;4.652;2024-03-23T17:07:49;49.72;;;46.00;;
34836;SDS011;21053;50.848;4.652;2024-03-23T17:10:17;51.08;;;47.25;;
34836;SDS011;21053;50.848;4.652;2024-03-23T17:12:44;49.53;;;45.80;;
34836;SDS011;21053;50.848;4.652;2024-03-23T17:15:10;50.08;;;46.08;;
34836;SDS011;21053;50.848;4.652;2024-03-23T17:17:38;58.65;;;54.00;;
34836;SDS011;21053;50.848;4.652;2024-03-23T17:20:10;53.25;;;49.20;;
34836;SDS011;21053;50.848;4.652;2024-03-23T17:25:11;54.15;;;50.08;;